Tweed, Canada
Current Conditions -  °F | °C
As of 2:00 AM on Friday 31 Oct 2014 (Local Time) from CYTR Reporting Station
Broken Clouds Broken Clouds  
Wind Chill: 39°   Ceiling: 4400
Heat Index: 39°   Visibility: 15mi
Dew Point: 36°   Wind: 0mph
Humidity: 87%   Direction: NA
Pressure: 30.01"   Gusts: NA
Location:  44.47°N, 77.3°W
Report Text: CYTR 310600Z 00000KT 15SM BKN044 04/02 A3001 RMK SC7 SLP166
Loading
Personal Weather Stations






























Interactive Weather Map
Tropical Storm Tracking
New forecast layout! Learn more

10-Day Weather Forecast

Advertisements
Track Severe Weather on mobile